Time;durP1;ratioP1;P1;durP2;ratioP2;P2;SDS_P1;SDS_P2;PMS_P1;PMS_P2;Temp;Humidity;BMP_temperature;BMP_pressure;BME280_temperature;BME280_humidity;BME280_pressure;Samples;Min_cycle;Max_cycle;Signal;HPM_P1;HPM_P2
2024/01/30 00:01:07;;;;;;;44.85;27.60;;;;;;;2.80;100.00;101811.41;5028803;28;20733;-74
2024/01/30 00:03:35;;;;;;;42.25;26.35;;;;;;;2.70;100.00;101805.22;5030578;28;20506;-74
2024/01/30 00:06:08;;;;;;;43.25;26.33;;;;;;;2.65;100.00;101801.72;5028845;28;20172;-74
2024/01/30 00:08:37;;;;;;;42.20;26.42;;;;;;;2.57;100.00;101803.38;5031058;28;20045;-74
2024/01/30 00:11:10;;;;;;;40.67;26.88;;;;;;;2.54;100.00;101797.25;5022718;28;20061;-74
2024/01/30 00:13:39;;;;;;;42.50;27.08;;;;;;;2.51;100.00;101802.47;5031501;28;20063;-74
2024/01/30 00:16:21;;;;;;;42.30;26.88;;;;;;;2.43;100.00;101798.03;5026952;28;20045;-73
2024/01/30 00:18:49;;;;;;;;;;;;;;;2.43;100.00;101800.66;5048435;28;20293;-73
2024/01/30 00:21:17;;;;;;;41.55;26.08;;;;;;;2.33;100.00;101792.72;5032956;28;19928;-74
2024/01/30 00:23:47;;;;;;;39.10;25.60;;;;;;;2.28;100.00;101790.06;5036250;28;20049;-73
2024/01/30 00:26:20;;;;;;;46.58;27.77;;;;;;;2.28;100.00;101800.53;5025324;28;20056;-73
2024/01/30 00:28:52;;;;;;;47.22;28.38;;;;;;;2.18;100.00;101796.09;5047247;28;20038;-73
2024/01/30 00:31:20;;;;;;;45.25;28.35;;;;;;;2.19;100.00;101796.97;5025343;28;20045;-73
2024/01/30 00:33:50;;;;;;;43.95;27.58;;;;;;;2.09;100.00;101790.75;5043252;28;20049;-71
2024/01/30 00:36:21;;;;;;;42.08;27.83;;;;;;;2.09;100.00;101790.75;5038563;28;20045;-73
2024/01/30 00:38:49;;;;;;;41.47;27.03;;;;;;;2.13;100.00;101789.91;5031305;28;20506;-73
2024/01/30 00:41:22;;;;;;;40.78;26.15;;;;;;;2.15;100.00;101803.88;5043837;28;20068;-73
2024/01/30 00:43:50;;;;;;;43.47;27.17;;;;;;;1.99;100.00;101762.78;5029806;28;20133;-73
2024/01/30 00:46:19;;;;;;;41.00;26.10;;;;;;;2.15;100.00;101788.22;5041764;28;20518;-73
2024/01/30 00:48:47;;;;;;;39.10;26.17;;;;;;;2.23;100.00;101796.09;5046091;28;20550;-73
2024/01/30 00:51:17;;;;;;;41.55;25.88;;;;;;;2.21;100.00;101793.47;5022253;28;20128;-73
2024/01/30 00:53:47;;;;;;;40.88;25.60;;;;;;;2.17;100.00;101791.72;5032243;28;20578;-73
2024/01/30 00:56:18;;;;;;;39.40;25.77;;;;;;;2.13;100.00;101797.75;5031179;28;20474;-73
2024/01/30 00:58:50;;;;;;;38.72;24.58;;;;;;;2.04;100.00;101787.22;5029674;28;20472;-73
2024/01/30 01:01:19;;;;;;;39.35;25.08;;;;;;;2.11;100.00;101799.47;5025628;28;20513;-73
2024/01/30 01:03:48;;;;;;;38.70;23.15;;;;;;;2.12;100.00;101806.47;5020062;28;20407;-72
2024/01/30 01:06:17;;;;;;;44.23;26.63;;;;;;;2.09;100.00;101809.91;5042641;28;20394;-75
2024/01/30 01:08:45;;;;;;;37.75;24.52;;;;;;;1.98;100.00;101792.38;5028552;28;20124;-74
2024/01/30 01:11:13;;;;;;;38.40;23.50;;;;;;;2.04;100.00;101811.63;5019615;28;20210;-73
2024/01/30 01:13:43;;;;;;;42.70;26.50;;;;;;;2.04;100.00;101805.53;5026013;28;20401;-72
2024/01/30 01:16:14;;;;;;;37.55;25.17;;;;;;;2.05;100.00;101812.47;5022745;28;20505;-74
2024/01/30 01:18:42;;;;;;;40.22;25.13;;;;;;;1.93;100.00;101799.28;5041010;28;20046;-74
2024/01/30 01:21:11;;;;;;;39.80;24.75;;;;;;;2.01;100.00;101806.38;5021915;28;20045;-74
2024/01/30 01:23:41;;;;;;;43.72;25.38;;;;;;;1.99;100.00;101809.81;5028197;28;20038;-73
2024/01/30 01:26:10;;;;;;;;;;;;;;;1.93;100.00;101814.97;5013272;28;20615;-73
2024/01/30 01:28:40;;;;;;;36.92;22.85;;;;;;;1.84;100.00;101807.91;5025802;28;19925;-72
2024/01/30 01:31:09;;;;;;;40.65;24.90;;;;;;;1.84;100.00;101801.81;5010893;28;20056;-73
2024/01/30 01:33:40;;;;;;;38.75;23.98;;;;;;;1.82;100.00;101793.97;5020334;28;20111;-72
2024/01/30 01:36:09;;;;;;;43.03;25.58;;;;;;;1.70;100.00;101775.53;5039191;28;20521;-74
2024/01/30 01:38:38;;;;;;;38.80;24.48;;;;;;;1.81;100.00;101800.03;5024756;28;20052;-74
2024/01/30 01:41:09;;;;;;;41.10;24.45;;;;;;;1.72;100.00;101784.28;5021681;28;21641;-74
2024/01/30 01:43:39;;;;;;;42.47;25.00;;;;;;;1.79;100.00;101798.25;5033257;28;20037;-72
2024/01/30 01:46:09;;;;;;;38.70;24.67;;;;;;;1.73;100.00;101786.88;5044916;28;20064;-73
2024/01/30 01:48:46;;;;;;;36.63;23.95;;;;;;;1.77;100.00;101796.50;5046564;28;20042;-74
2024/01/30 01:51:15;;;;;;;37.25;22.85;;;;;;;1.77;100.00;101796.50;5010886;28;20140;-74
2024/01/30 01:53:44;;;;;;;36.25;23.73;;;;;;;1.79;100.00;101793.03;5026633;28;20061;-73
2024/01/30 01:56:13;;;;;;;38.45;24.05;;;;;;;1.72;100.00;101772.09;5022797;28;20560;-73
2024/01/30 01:58:42;;;;;;;38.58;23.75;;;;;;;1.81;100.00;101783.50;5010477;28;20137;-74
2024/01/30 02:01:14;;;;;;;43.05;24.70;;;;;;;1.82;100.00;101787.84;5031250;28;20116;-74
2024/01/30 02:03:44;;;;;;;34.53;22.70;;;;;;;1.60;100.00;101745.81;5042512;28;20042;-73
2024/01/30 02:06:15;;;;;;;36.15;21.92;;;;;;;1.83;100.00;101779.16;5025181;28;20049;-73
2024/01/30 02:08:46;;;;;;;33.80;21.00;;;;;;;1.89;100.00;101785.31;5028903;28;20073;-75
2024/01/30 02:11:15;;;;;;;32.58;20.63;;;;;;;1.89;100.00;101780.09;5018137;28;20045;-74
2024/01/30 02:13:45;;;;;;;34.25;21.08;;;;;;;1.88;100.00;101782.72;5019720;28;20080;-73
2024/01/30 02:16:18;;;;;;;30.77;20.58;;;;;;;1.87;100.00;101783.56;5025755;28;20091;-74
2024/01/30 02:18:48;;;;;;;;;;;;;;;1.87;100.00;101792.28;5033905;28;20042;-73
2024/01/30 02:21:20;;;;;;;31.92;19.83;;;;;;;1.74;100.00;101769.47;5020456;28;20563;-73
2024/01/30 02:23:50;;;;;;;28.90;19.50;;;;;;;1.83;100.00;101781.78;5043744;28;20045;-73
2024/01/30 02:26:22;;;;;;;31.73;20.33;;;;;;;1.81;100.00;101778.25;5023556;28;20041;-76
2024/01/30 02:28:50;;;;;;;35.15;21.30;;;;;;;1.80;100.00;101779.13;5034602;28;20143;-75
2024/01/30 02:31:19;;;;;;;34.38;20.95;;;;;;;1.73;100.00;101775.59;5041847;28;20132;-74
2024/01/30 02:33:47;;;;;;;32.72;20.65;;;;;;;1.73;100.00;101786.88;5027063;28;20122;-74
2024/01/30 02:36:18;;;;;;;35.30;21.83;;;;;;;1.67;100.00;101784.22;5040888;28;20057;-74
2024/01/30 02:38:48;;;;;;;31.40;20.85;;;;;;;1.59;100.00;101772.78;5047540;28;20045;-73
2024/01/30 02:41:18;;;;;;;32.20;20.35;;;;;;;1.60;100.00;101779.78;5027951;28;20086;-74
2024/01/30 02:43:48;;;;;;;31.95;21.23;;;;;;;1.60;100.00;101782.38;5034708;28;20061;-74
2024/01/30 02:46:16;;;;;;;33.65;21.73;;;;;;;1.57;100.00;101784.97;5030325;28;20132;-75
2024/01/30 02:48:45;;;;;;;36.35;22.88;;;;;;;1.51;100.00;101776.19;5027288;28;20500;-73
2024/01/30 02:51:18;;;;;;;33.40;21.75;;;;;;;1.49;100.00;101788.34;5037008;28;20144;-74
2024/01/30 02:53:49;;;;;;;34.50;21.25;;;;;;;1.43;100.00;101778.69;5026070;28;20142;-74
2024/01/30 02:56:17;;;;;;;33.58;21.20;;;;;;;1.43;100.00;101783.91;5035688;28;20046;-74
2024/01/30 02:58:45;;;;;;;38.65;22.88;;;;;;;1.39;100.00;101777.81;5040255;28;20100;-74
2024/01/30 03:01:15;;;;;;;34.42;21.30;;;;;;;1.42;100.00;101777.81;5027044;28;20050;-75
2024/01/30 03:03:43;;;;;;;33.63;21.65;;;;;;;1.45;100.00;101779.59;5039190;28;20052;-73
2024/01/30 03:06:12;;;;;;;33.10;21.42;;;;;;;1.48;100.00;101777.03;5027472;28;20060;-73
2024/01/30 03:08:42;;;;;;;31.92;21.25;;;;;;;1.45;100.00;101765.66;5027873;28;20041;-73
2024/01/30 03:11:10;;;;;;;34.78;21.80;;;;;;;1.55;100.00;101772.75;5021187;28;20053;-74
2024/01/30 03:13:40;;;;;;;31.52;20.08;;;;;;;1.60;100.00;101774.53;5042685;28;20113;-74
2024/01/30 03:16:09;;;;;;;33.17;21.88;;;;;;;1.61;100.00;101770.19;5010723;28;20054;-74
2024/01/30 03:18:38;;;;;;;31.85;21.13;;;;;;;1.62;100.00;101770.22;5026429;28;20793;-73
2024/01/30 03:21:07;;;;;;;33.80;21.42;;;;;;;1.68;100.00;101775.53;5021225;28;20128;-74
2024/01/30 03:23:37;;;;;;;;;;;;;;;1.68;100.00;101780.75;5023245;28;20413;-73
2024/01/30 03:26:06;;;;;;;36.17;21.40;;;;;;;1.36;100.00;101719.47;5027260;28;19932;-74
2024/01/30 03:28:34;;;;;;;30.95;21.52;;;;;;;1.61;100.00;101773.69;5040805;28;20433;-73
2024/01/30 03:31:03;;;;;;;33.60;21.30;;;;;;;1.52;100.00;101771.00;5026361;28;20053;-73
2024/01/30 03:33:32;;;;;;;30.27;19.83;;;;;;;1.51;100.00;101771.84;5049521;28;20034;-73
2024/01/30 03:36:04;;;;;;;32.28;20.83;;;;;;;1.55;100.00;101770.16;5035501;28;20528;-73
2024/01/30 03:38:34;;;;;;;31.83;21.38;;;;;;;1.54;100.00;101776.22;5027272;28;20078;-74
2024/01/30 03:41:04;;;;;;;31.83;20.60;;;;;;;1.58;100.00;101778.00;5034187;28;20653;-74
2024/01/30 03:43:39;;;;;;;32.92;21.33;;;;;;;1.56;100.00;101782.34;5026034;28;20683;-73
2024/01/30 03:46:09;;;;;;;37.17;22.70;;;;;;;1.53;100.00;101774.47;5025372;28;20060;-72
2024/01/30 03:48:38;;;;;;;34.75;22.67;;;;;;;1.58;100.00;101786.69;5028630;28;20352;-74
2024/01/30 03:51:07;;;;;;;33.53;20.98;;;;;;;1.56;100.00;101788.44;5010083;28;20056;-72
2024/01/30 03:53:36;;;;;;;34.10;22.55;;;;;;;1.37;100.00;101762.97;5051572;28;20062;-72
2024/01/30 03:56:05;;;;;;;30.35;20.90;;;;;;;1.30;100.00;101762.00;5033498;28;20079;-73
2024/01/30 03:58:37;;;;;;;31.63;21.10;;;;;;;1.43;100.00;101778.69;5030552;28;20045;-73
2024/01/30 04:01:05;;;;;;;33.22;20.40;;;;;;;1.44;100.00;101772.63;5034314;28;20347;-73
2024/01/30 04:03:36;;;;;;;30.38;20.95;;;;;;;1.38;100.00;101775.16;5042148;28;20414;-74
2024/01/30 04:06:07;;;;;;;30.02;20.13;;;;;;;1.28;100.00;101786.31;5024704;28;20048;-74
2024/01/30 04:08:36;;;;;;;36.10;20.95;;;;;;;1.18;100.00;101766.19;5021152;28;20045;-75
2024/01/30 04:11:07;;;;;;;31.98;20.83;;;;;;;1.18;100.00;101776.63;5025323;28;20049;-72
2024/01/30 04:13:36;;;;;;;;;;;;;;;1.15;100.00;101777.47;5023246;28;20056;-72
2024/01/30 04:16:07;;;;;;;31.10;20.05;;;;;;;1.12;100.00;101772.19;5038615;28;20066;-74
2024/01/30 04:18:37;;;;;;;30.58;19.90;;;;;;;1.12;100.00;101768.72;5026605;28;20060;-74
2024/01/30 04:21:08;;;;;;;29.10;18.85;;;;;;;1.12;100.00;101763.50;5021962;28;21134;-74
2024/01/30 04:23:37;;;;;;;34.08;20.38;;;;;;;1.11;100.00;101760.00;5026652;28;20351;-73
2024/01/30 04:26:05;;;;;;;30.95;19.48;;;;;;;1.19;100.00;101767.94;5026707;28;20513;-74
2024/01/30 04:28:37;;;;;;;28.08;19.08;;;;;;;1.25;100.00;101763.69;5029709;28;20053;-74
2024/01/30 04:31:06;;;;;;;25.67;18.45;;;;;;;1.28;100.00;101760.22;5033967;28;20053;-74
2024/01/30 04:33:36;;;;;;;26.42;17.98;;;;;;;1.30;100.00;101756.78;5025747;28;22427;-72
2024/01/30 04:36:05;;;;;;;29.73;19.00;;;;;;;1.35;100.00;101770.78;5021794;28;20049;-72
2024/01/30 04:38:35;;;;;;;35.22;20.52;;;;;;;1.35;100.00;101759.47;5025728;28;20559;-74
2024/01/30 04:41:04;;;;;;;33.28;21.17;;;;;;;1.35;100.00;101765.56;5019707;28;20682;-74
2024/01/30 04:43:33;;;;;;;31.75;20.95;;;;;;;1.24;100.00;101751.50;5018454;28;20145;-77
2024/01/30 04:46:03;;;;;;;30.60;20.42;;;;;;;1.29;100.00;101769.81;5026441;28;20068;-74
2024/01/30 04:48:36;;;;;;;31.95;19.42;;;;;;;1.29;100.00;101769.81;5007763;28;20049;-74
2024/01/30 04:51:05;;;;;;;29.15;19.75;;;;;;;1.21;100.00;101759.28;5033537;28;20075;-74
2024/01/30 04:53:36;;;;;;;34.13;21.52;;;;;;;1.24;100.00;101772.38;5027353;28;20049;-72
2024/01/30 04:56:06;;;;;;;29.67;20.08;;;;;;;1.25;100.00;101773.25;5038689;28;20057;-74
2024/01/30 04:58:35;;;;;;;34.00;20.70;;;;;;;1.22;100.00;101762.78;5048978;28;20029;-73
2024/01/30 05:01:08;;;;;;;31.38;19.38;;;;;;;1.17;100.00;101760.09;5033926;28;20469;-73
2024/01/30 05:03:41;;;;;;;29.38;19.60;;;;;;;1.29;100.00;101769.81;5023037;28;20041;-73
2024/01/30 05:06:10;;;;;;;30.85;20.55;;;;;;;1.29;100.00;101772.41;5027147;28;20120;-72
2024/01/30 05:08:40;;;;;;;35.10;20.27;;;;;;;1.34;100.00;101778.59;5010905;28;20132;-72
2024/01/30 05:11:10;;;;;;;31.88;19.85;;;;;;;1.34;100.00;101789.91;5037831;28;20049;-74
2024/01/30 05:13:40;;;;;;;31.58;20.23;;;;;;;1.31;100.00;101784.63;5035881;28;20104;-74
2024/01/30 05:16:11;;;;;;;27.75;19.73;;;;;;;1.30;100.00;101771.56;5023681;28;20048;-75
2024/01/30 05:18:39;;;;;;;29.13;19.80;;;;;;;1.29;100.00;101778.53;5029829;28;20046;-74
2024/01/30 05:21:08;;;;;;;27.95;19.88;;;;;;;1.36;100.00;101788.19;5024959;28;20114;-74
2024/01/30 05:23:46;;;;;;;29.38;19.35;;;;;;;1.36;100.00;101793.41;5014553;28;20054;-74
2024/01/30 05:26:14;;;;;;;30.35;19.77;;;;;;;1.33;100.00;101788.16;5020055;28;20057;-73
2024/01/30 05:28:44;;;;;;;28.10;19.02;;;;;;;1.33;100.00;101779.44;5025676;28;20136;-73
2024/01/30 05:31:17;;;;;;;28.53;18.57;;;;;;;1.34;100.00;101781.19;5024380;28;20050;-74
2024/01/30 05:33:50;;;;;;;33.00;20.15;;;;;;;1.33;100.00;101792.50;5025868;28;20049;-75
2024/01/30 05:36:21;;;;;;;31.63;20.20;;;;;;;1.25;100.00;101773.25;5034639;28;20052;-73
2024/01/30 05:38:50;;;;;;;30.10;19.35;;;;;;;1.31;100.00;101791.59;5027845;28;20053;-73
2024/01/30 05:41:18;;;;;;;30.05;19.45;;;;;;;1.33;100.00;101793.38;5026889;28;20100;-73
2024/01/30 05:43:47;;;;;;;30.02;18.98;;;;;;;1.28;100.00;101784.59;5034649;28;20053;-74
2024/01/30 05:46:18;;;;;;;30.10;19.13;;;;;;;1.09;100.00;101756.53;5016547;28;20130;-74
2024/01/30 05:48:50;;;;;;;29.50;19.67;;;;;;;1.34;100.00;101789.03;5041187;28;20132;-74
2024/01/30 05:51:20;;;;;;;29.70;19.33;;;;;;;1.23;100.00;101791.50;5015481;28;20064;-73
2024/01/30 05:53:48;;;;;;;28.05;19.85;;;;;;;1.25;100.00;101795.00;5036331;28;20030;-73
2024/01/30 05:56:16;;;;;;;31.45;20.48;;;;;;;1.24;100.00;101806.31;5037899;28;20050;-73
2024/01/30 05:58:50;;;;;;;30.33;19.10;;;;;;;1.21;100.00;101805.38;5029692;28;20132;-75
2024/01/30 06:01:24;;;;;;;29.83;18.92;;;;;;;1.15;100.00;101810.50;5023334;28;20046;-73
2024/01/30 06:03:52;;;;;;;30.40;18.42;;;;;;;1.02;100.00;101781.66;5017772;28;21157;-73
2024/01/30 06:06:21;;;;;;;28.15;19.02;;;;;;;1.07;100.00;101799.09;5030773;28;20091;-74
2024/01/30 06:08:50;;;;;;;28.97;18.47;;;;;;;1.07;100.00;101799.09;5030164;28;20048;-73
2024/01/30 06:11:19;;;;;;;27.23;19.92;;;;;;;1.07;100.00;101805.19;5027480;28;20464;-74
2024/01/30 06:13:50;;;;;;;32.13;20.13;;;;;;;1.05;100.00;101805.16;5024055;28;20056;-73
2024/01/30 06:16:21;;;;;;;30.75;20.95;;;;;;;1.05;100.00;101804.28;5044009;28;20045;-74
2024/01/30 06:18:50;;;;;;;32.60;21.08;;;;;;;1.04;100.00;101799.94;5045193;28;20104;-74
2024/01/30 06:21:20;;;;;;;36.47;21.23;;;;;;;0.95;100.00;101784.13;5023843;28;20045;-73
2024/01/30 06:23:48;;;;;;;32.22;20.90;;;;;;;0.98;100.00;101795.50;5035315;28;20414;-73
2024/01/30 06:26:17;;;;;;;31.15;19.67;;;;;;;1.01;100.00;101800.75;5009213;28;20037;-74
2024/01/30 06:28:48;;;;;;;32.90;19.00;;;;;;;0.98;100.00;101805.91;5033324;28;20163;-73
2024/01/30 06:31:16;;;;;;;30.60;20.27;;;;;;;0.95;100.00;101798.03;5023647;28;20096;-73
2024/01/30 06:33:48;;;;;;;33.10;19.90;;;;;;;0.96;100.00;101796.31;5032162;28;20170;-73
2024/01/30 06:36:19;;;;;;;31.70;20.25;;;;;;;0.91;100.00;101790.19;5037300;28;20053;-73
2024/01/30 06:38:49;;;;;;;33.03;20.42;;;;;;;0.96;100.00;101801.53;5047744;28;20148;-74
2024/01/30 06:41:18;;;;;;;32.25;20.20;;;;;;;0.95;100.00;101805.88;5040617;28;20138;-74
2024/01/30 06:43:48;;;;;;;30.90;19.90;;;;;;;0.94;100.00;101801.53;5015358;28;20067;-74
2024/01/30 06:46:17;;;;;;;29.55;19.40;;;;;;;0.93;100.00;101801.50;5039622;28;20514;-74
2024/01/30 06:48:45;;;;;;;31.90;19.77;;;;;;;0.94;100.00;101800.66;5014227;28;20118;-74
2024/01/30 06:51:14;;;;;;;35.10;20.52;;;;;;;0.83;100.00;101773.53;5038936;28;20042;-74
2024/01/30 06:53:46;;;;;;;35.22;22.02;;;;;;;0.98;100.00;101808.53;5032775;28;20045;-74
2024/01/30 06:56:15;;;;;;;38.30;22.25;;;;;;;1.01;100.00;101802.47;5029012;28;20115;-74
2024/01/30 06:58:43;;;;;;;38.08;22.25;;;;;;;0.96;100.00;101801.53;5025920;28;20072;-74
2024/01/30 07:01:11;;;;;;;36.70;22.83;;;;;;;0.97;100.00;101816.31;5046010;28;20041;-74
2024/01/30 07:03:41;;;;;;;34.63;21.75;;;;;;;0.83;100.00;101787.44;5030106;28;20048;-73
2024/01/30 07:06:10;;;;;;;32.45;21.05;;;;;;;0.88;100.00;101797.94;5049458;28;20126;-73
2024/01/30 07:08:39;;;;;;;34.25;21.70;;;;;;;0.90;100.00;101804.94;5023259;28;20070;-73
2024/01/30 07:11:09;;;;;;;34.75;21.20;;;;;;;0.92;100.00;101811.06;5024691;28;20049;-73
2024/01/30 07:13:39;;;;;;;43.65;26.42;;;;;;;0.84;100.00;101790.94;5032194;28;20050;-73
2024/01/30 07:16:10;;;;;;;38.00;23.20;;;;;;;0.89;100.00;101802.31;5028298;28;20082;-74
2024/01/30 07:18:38;;;;;;;34.38;21.73;;;;;;;0.91;100.00;101808.44;5015502;28;20049;-75
2024/01/30 07:21:08;;;;;;;32.10;21.50;;;;;;;0.85;100.00;101798.78;5023558;28;20037;-74
2024/01/30 07:23:38;;;;;;;34.85;21.55;;;;;;;0.80;100.00;101786.50;5014408;28;20483;-72
2024/01/30 07:26:08;;;;;;;39.72;21.70;;;;;;;0.96;100.00;101802.41;5029976;28;20148;-75
2024/01/30 07:28:39;;;;;;;34.40;22.13;;;;;;;0.95;100.00;101798.03;5037816;28;20173;-73
2024/01/30 07:31:10;;;;;;;35.35;20.65;;;;;;;1.08;100.00;101806.94;5033524;28;20456;-73
2024/01/30 07:33:38;;;;;;;37.22;22.67;;;;;;;1.06;100.00;101795.63;5019607;28;20054;-74
2024/01/30 07:36:07;;;;;;;33.83;20.48;;;;;;;1.18;100.00;101803.59;5020631;28;20107;-73
2024/01/30 07:38:35;;;;;;;33.53;21.08;;;;;;;1.16;100.00;101807.91;5025399;28;20136;-75
2024/01/30 07:41:03;;;;;;;36.13;21.85;;;;;;;1.23;100.00;101816.72;5043982;28;20049;-74
2024/01/30 07:43:36;;;;;;;38.88;22.23;;;;;;;1.26;100.00;101809.78;5035210;28;20041;-74
2024/01/30 07:46:07;;;;;;;37.80;21.90;;;;;;;1.34;100.00;101813.38;5009434;28;20060;-74
2024/01/30 07:48:35;;;;;;;35.80;20.83;;;;;;;1.44;100.00;101811.75;5030126;28;20058;-76
2024/01/30 07:51:03;;;;;;;37.22;21.13;;;;;;;1.54;100.00;101812.78;5032601;28;20498;-74
2024/01/30 07:53:33;;;;;;;37.80;21.83;;;;;;;1.57;100.00;101795.44;5032709;28;20068;-74
2024/01/30 07:56:03;;;;;;;37.92;22.30;;;;;;;1.71;100.00;101811.25;5017601;28;20487;-74
2024/01/30 07:58:31;;;;;;;33.75;21.00;;;;;;;1.83;100.00;101800.94;5021080;28;20059;-72
2024/01/30 08:01:00;;;;;;;33.95;20.38;;;;;;;1.92;100.00;101810.59;5020232;28;20507;-74
2024/01/30 08:03:31;;;;;;;34.97;20.65;;;;;;;1.88;100.00;101782.72;5017273;28;20521;-74
2024/01/30 08:05:59;;;;;;;41.17;22.67;;;;;;;2.02;100.00;101802.91;5002894;28;20050;-74
2024/01/30 08:08:28;;;;;;;32.53;21.13;;;;;;;2.20;100.00;101814.41;5024823;28;20076;-74
2024/01/30 08:10:56;;;;;;;40.25;21.98;;;;;;;2.22;100.00;101812.63;5010902;28;20080;-74
2024/01/30 08:13:25;;;;;;;40.33;21.88;;;;;;;2.22;100.00;101816.13;5013887;28;20048;-73
2024/01/30 08:15:54;;;;;;;42.20;22.30;;;;;;;2.33;100.00;101830.19;5019140;28;20057;-74
2024/01/30 08:18:22;;;;;;;42.00;24.02;;;;;;;2.34;100.00;101833.69;5022338;28;20057;-74
2024/01/30 08:20:53;;;;;;;40.20;22.52;;;;;;;2.40;100.00;101834.59;5018892;28;20097;-73
2024/01/30 08:23:22;;;;;;;42.72;22.10;;;;;;;2.43;100.00;101837.25;5022259;28;20050;-73
2024/01/30 08:25:52;;;;;;;;;;;;;;;2.47;100.00;101835.56;5036942;28;20184;-72
2024/01/30 08:28:20;;;;;;;40.70;22.48;;;;;;;2.55;100.00;101833.00;5037922;28;19931;-75
2024/01/30 08:30:52;;;;;;;;;;;;;;;2.62;100.00;101826.97;5020871;28;20058;-72
2024/01/30 08:33:21;;;;;;;42.70;25.20;;;;;;;2.70;100.00;101833.13;5018902;28;19929;-75
2024/01/30 08:35:50;;;;;;;42.60;25.75;;;;;;;2.79;100.00;101833.22;5019443;28;20315;-76
2024/01/30 08:38:20;;;;;;;45.05;25.30;;;;;;;2.89;100.00;101829.78;5020330;28;20059;-74
2024/01/30 08:40:48;;;;;;;44.00;24.52;;;;;;;2.94;100.00;101822.84;5039750;28;20046;-75
2024/01/30 08:43:18;;;;;;;40.17;24.23;;;;;;;3.07;100.00;101829.91;5027921;28;20046;-74
2024/01/30 08:45:49;;;;;;;41.67;25.60;;;;;;;3.14;100.00;101812.53;5003299;28;20107;-73
2024/01/30 08:48:18;;;;;;;36.20;23.77;;;;;;;3.38;100.00;101827.47;5021147;28;20041;-75
2024/01/30 08:50:50;;;;;;;38.72;23.95;;;;;;;3.43;100.00;101818.78;5021506;28;20049;-73
2024/01/30 08:53:20;;;;;;;34.38;23.35;;;;;;;3.43;100.00;101804.81;4999894;28;20053;-72
2024/01/30 08:55:52;;;;;;;39.88;23.38;;;;;;;3.59;100.00;101831.97;5020360;28;20089;-72
2024/01/30 08:58:21;;;;;;;35.95;24.52;;;;;;;3.67;100.00;101828.47;5040298;28;20128;-73
2024/01/30 09:00:51;;;;;;;37.85;23.58;;;;;;;3.76;100.00;101831.16;5022365;28;20053;-73
2024/01/30 09:03:20;;;;;;;36.67;24.45;;;;;;;3.66;100.00;101824.13;5039617;28;20085;-73
2024/01/30 09:05:48;;;;;;;36.20;24.02;;;;;;;3.71;100.00;101826.75;5007488;28;20054;-73
2024/01/30 09:08:17;;;;;;;36.22;22.92;;;;;;;3.72;100.00;101834.63;5037801;28;20068;-73
2024/01/30 09:10:49;;;;;;;34.28;22.38;;;;;;;3.78;100.00;101834.63;5007635;28;20142;-74
2024/01/30 09:13:17;;;;;;;36.22;23.05;;;;;;;3.82;100.00;101836.41;5016463;28;20491;-73
2024/01/30 09:15:47;;;;;;;33.33;23.80;;;;;;;3.82;100.00;101832.91;5035889;28;20540;-74
2024/01/30 09:18:15;;;;;;;33.15;23.45;;;;;;;3.83;100.00;101835.53;5024870;28;20175;-74
2024/01/30 09:20:45;;;;;;;32.60;21.95;;;;;;;3.88;100.00;101841.69;5029381;28;20081;-75
2024/01/30 09:23:13;;;;;;;33.93;22.47;;;;;;;4.01;100.00;101834.72;5015608;28;20116;-74
2024/01/30 09:25:44;;;;;;;32.30;23.23;;;;;;;4.10;100.00;101849.59;5035110;28;20088;-73
2024/01/30 09:28:14;;;;;;;35.38;22.73;;;;;;;3.88;100.00;101815.47;5018985;28;20064;-74
2024/01/30 09:30:44;;;;;;;35.13;23.58;;;;;;;4.04;100.00;101857.44;5024975;28;20045;-74
2024/01/30 09:33:16;;;;;;;38.25;23.67;;;;;;;4.00;100.00;101842.56;5015191;28;20050;-73
2024/01/30 09:35:44;;;;;;;39.88;24.42;;;;;;;4.03;100.00;101850.47;5045138;28;20107;-74
2024/01/30 09:38:12;;;;;;;34.75;24.08;;;;;;;4.00;100.00;101846.06;5032340;28;20053;-74
2024/01/30 09:40:43;;;;;;;35.25;23.75;;;;;;;4.10;100.00;101845.22;5002602;28;20087;-74
2024/01/30 09:43:18;;;;;;;35.05;23.63;;;;;;;4.21;100.00;101848.75;5021899;28;20053;-72
2024/01/30 09:45:49;;;;;;;34.05;24.10;;;;;;;4.24;100.00;101850.53;5021944;28;20064;-72
2024/01/30 09:48:18;;;;;;;;;;;;;;;4.25;100.00;101844.38;5023182;28;22399;-74
2024/01/30 09:50:48;;;;;;;32.72;23.67;;;;;;;4.13;100.00;101833.88;5039778;28;19940;-73
2024/01/30 09:53:19;;;;;;;34.20;24.15;;;;;;;4.19;100.00;101850.50;5018208;28;22389;-74
2024/01/30 09:55:47;;;;;;;;;;;;;;;4.18;100.00;101846.13;5022833;28;20060;-73
2024/01/30 09:58:18;;;;;;;36.88;23.17;;;;;;;4.17;100.00;101838.25;5033786;28;19925;-74
2024/01/30 10:00:46;;;;;;;36.05;24.33;;;;;;;4.19;100.00;101847.00;5025575;28;20827;-74
2024/01/30 10:03:15;;;;;;;39.85;24.50;;;;;;;4.16;100.00;101847.00;5034107;28;20064;-74
2024/01/30 10:05:53;;;;;;;35.22;24.05;;;;;;;4.15;100.00;101840.88;5016320;28;20045;-74
2024/01/30 10:08:21;;;;;;;35.63;24.98;;;;;;;4.27;100.00;101847.88;5022545;28;20604;-75
2024/01/30 10:10:50;;;;;;;35.38;24.85;;;;;;;4.29;100.00;101859.25;5045322;28;20164;-74
2024/01/30 10:13:20;;;;;;;36.05;24.75;;;;;;;4.21;100.00;101835.66;5022980;28;20063;-75
2024/01/30 10:15:50;;;;;;;36.78;24.83;;;;;;;4.44;100.00;101854.03;5018191;28;20421;-73
2024/01/30 10:18:20;;;;;;;36.78;24.58;;;;;;;4.53;100.00;101843.56;5026350;28;20083;-73
2024/01/30 10:20:52;;;;;;;35.30;24.75;;;;;;;4.63;100.00;101846.19;5021141;28;20091;-74
2024/01/30 10:23:24;;;;;;;33.38;23.20;;;;;;;4.71;100.00;101842.72;5026254;28;20075;-73
2024/01/30 10:25:53;;;;;;;33.03;23.80;;;;;;;4.85;100.00;101840.06;5026304;28;20433;-73
2024/01/30 10:28:25;;;;;;;37.15;24.40;;;;;;;4.87;100.00;101826.09;5025556;28;20155;-74
2024/01/30 10:31:00;;;;;;;35.67;23.13;;;;;;;4.89;100.00;101831.31;5023737;28;20125;-75
2024/01/30 10:33:35;;;;;;;37.58;22.88;;;;;;;5.11;100.00;101827.78;5027490;28;20046;-74
2024/01/30 10:36:05;;;;;;;31.30;22.77;;;;;;;5.18;100.00;101815.53;5021433;28;20499;-74
2024/01/30 10:38:34;;;;;;;31.27;22.48;;;;;;;5.38;100.00;101820.72;5028189;28;20049;-74
2024/01/30 10:41:04;;;;;;;30.95;21.70;;;;;;;5.54;100.00;101822.41;5023728;28;20159;-74
2024/01/30 10:43:41;;;;;;;30.88;21.05;;;;;;;5.63;100.00;101825.03;5022230;28;20092;-72
2024/01/30 10:46:21;;;;;;;28.67;21.73;;;;;;;5.62;100.00;101823.28;5020935;28;20057;-76
2024/01/30 10:48:59;;;;;;;36.17;21.85;;;;;;;5.43;100.00;101816.31;5031654;28;20042;-77
2024/01/30 10:51:37;;;;;;;32.67;22.75;;;;;;;5.29;100.00;101817.25;5030534;28;20050;-77
2024/01/30 10:54:10;;;;;;;32.47;23.10;;;;;;;5.24;100.00;101812.88;5039891;28;20042;-76
2024/01/30 10:56:40;;;;;;;31.38;22.67;;;;;;;5.22;100.00;101809.38;5037944;28;20057;-75
2024/01/30 10:59:13;;;;;;;31.42;22.52;;;;;;;5.39;100.00;101825.09;5051190;28;20051;-76
2024/01/30 11:01:42;;;;;;;34.75;23.02;;;;;;;5.53;100.00;101825.91;5047670;28;20053;-75
2024/01/30 11:04:18;;;;;;;35.75;23.65;;;;;;;5.63;100.00;101828.53;5035869;28;20133;-73
2024/01/30 11:06:50;;;;;;;29.08;22.48;;;;;;;5.71;100.00;101835.47;5024731;28;20065;-75
2024/01/30 11:09:19;;;;;;;36.63;23.60;;;;;;;5.79;100.00;101839.84;5047302;28;20048;-73
2024/01/30 11:11:53;;;;;;;30.75;22.15;;;;;;;5.84;100.00;101837.16;5027421;28;20042;-76
2024/01/30 11:14:34;;;;;;;34.60;22.30;;;;;;;5.88;100.00;101834.56;5022271;28;20601;-74
2024/01/30 11:17:06;;;;;;;33.55;21.90;;;;;;;5.95;100.00;101833.66;5029892;28;20049;-76
2024/01/30 11:19:37;;;;;;;37.80;23.27;;;;;;;5.97;100.00;101821.41;5029636;28;20045;-73
2024/01/30 11:22:08;;;;;;;31.40;22.50;;;;;;;5.91;100.00;101817.91;5028725;28;20045;-76
2024/01/30 11:24:44;;;;;;;32.58;23.38;;;;;;;6.09;100.00;101824.81;5019827;28;20390;-77